createdAt,value
2019-01-18T00:03:04.216Z,100877.63
2019-01-18T00:07:57.174Z,100879.01
2019-01-18T00:12:51.882Z,100890.47
2019-01-18T00:17:44.930Z,100902.02
2019-01-18T00:22:37.873Z,100905.23
2019-01-18T00:27:30.784Z,100909.62
2019-01-18T00:32:23.703Z,100913.72
2019-01-18T00:37:16.667Z,100923.93
2019-01-18T00:42:09.588Z,100924.76
2019-01-18T00:47:02.490Z,100934.70
2019-01-18T00:51:55.452Z,100933.28
2019-01-18T00:56:48.373Z,100945.02
2019-01-18T01:01:41.291Z,100942.49
2019-01-18T01:06:34.263Z,100955.33
2019-01-18T01:11:27.343Z,100965.36
2019-01-18T01:16:20.357Z,100977.59
2019-01-18T01:21:13.357Z,100979.80
2019-01-18T01:26:07.348Z,100991.39
2019-01-18T01:31:00.260Z,101000.13
2019-01-18T01:35:53.165Z,101005.50
2019-01-18T01:40:46.185Z,101005.84
2019-01-18T01:45:39.112Z,101020.34
2019-01-18T01:50:31.978Z,101024.02
2019-01-18T01:55:24.888Z,101036.66
2019-01-18T02:00:24.206Z,101043.12
2019-01-18T02:05:17.124Z,101050.13
2019-01-18T02:10:12.027Z,101059.70
2019-01-18T02:15:07.436Z,101064.33
2019-01-18T02:20:00.339Z,101069.34
2019-01-18T02:24:53.326Z,101076.25
2019-01-18T02:29:46.200Z,101085.23
2019-01-18T02:34:39.064Z,101093.12
2019-01-18T02:39:32.025Z,101102.41
2019-01-18T02:44:24.962Z,101110.45
2019-01-18T02:49:17.928Z,101116.36
2019-01-18T02:54:10.884Z,101111.93
2019-01-18T02:59:04.286Z,101118.08
2019-01-18T03:03:57.146Z,101129.03
2019-01-18T03:08:50.286Z,101145.01
2019-01-18T03:13:43.180Z,101153.50
2019-01-18T03:18:36.069Z,101156.89
2019-01-18T03:23:28.935Z,101159.10
2019-01-18T03:28:21.786Z,101176.78
2019-01-18T03:33:14.660Z,101180.23
2019-01-18T03:38:07.561Z,101186.13
2019-01-18T03:43:00.438Z,101198.96
2019-01-18T03:47:53.310Z,101202.37
2019-01-18T03:52:46.114Z,101212.31
2019-01-18T03:57:39.018Z,101221.54
2019-01-18T04:02:31.900Z,101224.22
2019-01-18T04:07:24.752Z,101234.19
2019-01-18T04:12:18.525Z,101243.27
2019-01-18T04:17:11.391Z,101241.41
2019-01-18T04:22:04.473Z,101252.94
2019-01-18T04:26:57.362Z,101256.05
2019-01-18T04:31:50.228Z,101264.59
2019-01-18T04:36:43.121Z,101270.71
2019-01-18T04:41:36.025Z,101273.92
2019-01-18T04:46:28.841Z,101276.02
2019-01-18T04:51:21.725Z,101271.72
2019-01-18T04:56:14.601Z,101284.92
2019-01-18T05:01:07.556Z,101284.53
2019-01-18T05:06:00.528Z,101295.84
2019-01-18T05:10:53.504Z,101304.01
2019-01-18T05:15:46.353Z,101306.86
2019-01-18T05:20:39.256Z,101309.75
2019-01-18T05:25:32.216Z,101305.92
2019-01-18T05:30:27.634Z,101317.55
2019-01-18T05:35:20.601Z,101318.88
2019-01-18T05:40:15.245Z,101325.30
2019-01-18T05:45:10.233Z,101341.14
2019-01-18T05:50:04.921Z,101346.64
2019-01-18T05:54:57.839Z,101356.73
2019-01-18T05:59:50.824Z,101362.23
2019-01-18T06:04:45.823Z,101362.26
2019-01-18T06:09:38.663Z,101367.25
2019-01-18T06:14:31.530Z,101368.50
2019-01-18T06:19:24.425Z,101372.85
2019-01-18T06:24:17.322Z,101375.80
2019-01-18T06:29:10.179Z,101376.19
2019-01-18T06:34:03.322Z,101379.72
2019-01-18T06:38:56.280Z,101378.70
2019-01-18T06:43:49.182Z,101384.34
2019-01-18T06:48:42.833Z,101398.28
2019-01-18T06:53:35.717Z,101406.72
2019-01-18T06:58:28.745Z,101419.83
2019-01-18T07:03:21.656Z,101416.41
2019-01-18T07:08:14.562Z,101421.86
2019-01-18T07:13:07.407Z,101423.37
2019-01-18T07:18:00.276Z,101427.92
2019-01-18T07:22:53.214Z,101433.78
2019-01-18T07:27:46.100Z,101437.63
2019-01-18T07:32:38.967Z,101431.78
2019-01-18T07:37:31.860Z,101433.64
2019-01-18T07:42:24.735Z,101439.05
2019-01-18T07:47:17.662Z,101445.47
2019-01-18T07:52:10.530Z,101449.70
2019-01-18T07:57:03.391Z,101461.50
2019-01-18T08:01:56.258Z,101472.09
2019-01-18T08:06:49.242Z,101470.48
2019-01-18T08:11:42.064Z,101467.97
2019-01-18T08:16:34.960Z,101478.89
2019-01-18T08:21:27.846Z,101484.69
2019-01-18T08:26:20.704Z,101490.41
2019-01-18T08:31:13.620Z,101493.02
2019-01-18T08:36:06.735Z,101497.96
2019-01-18T08:40:59.649Z,101501.90
2019-01-18T08:46:05.982Z,101522.02
2019-01-18T08:50:59.105Z,101531.48
2019-01-18T08:55:51.948Z,101531.97
2019-01-18T09:00:44.944Z,101540.50
2019-01-18T09:05:37.884Z,101539.34
2019-01-18T09:10:31.028Z,101544.61
2019-01-18T09:15:23.930Z,101546.91
2019-01-18T09:20:20.076Z,101539.97
2019-01-18T09:25:13.019Z,101550.52
2019-01-18T09:30:10.591Z,101548.45
2019-01-18T09:35:05.139Z,101556.14
2019-01-18T09:39:58.156Z,101562.72
2019-01-18T09:44:51.119Z,101574.62
2019-01-18T09:49:44.037Z,101580.28
2019-01-18T09:54:36.940Z,101593.89
2019-01-18T09:59:29.879Z,101596.31
2019-01-18T10:04:22.707Z,101600.09
2019-01-18T10:09:15.614Z,101607.98
2019-01-18T10:14:08.589Z,101606.70
2019-01-18T10:19:01.490Z,101597.48
2019-01-18T10:23:54.310Z,101599.44
2019-01-18T10:28:47.178Z,101601.31
2019-01-18T10:33:40.094Z,101597.20
2019-01-18T10:38:34.907Z,101604.59
2019-01-18T10:43:27.770Z,101599.64
2019-01-18T10:48:20.677Z,101603.55
2019-01-18T10:53:13.573Z,101602.48
2019-01-18T10:58:06.546Z,101604.22
2019-01-18T11:02:59.418Z,101599.69
2019-01-18T11:07:52.288Z,101604.05
2019-01-18T11:12:45.254Z,101602.48
2019-01-18T11:17:38.308Z,101591.98
2019-01-18T11:22:31.265Z,101583.00
2019-01-18T11:27:24.288Z,101590.41
2019-01-18T11:32:17.256Z,101577.52
2019-01-18T11:37:10.289Z,101575.58
2019-01-18T11:42:05.279Z,101566.40
2019-01-18T11:46:58.233Z,101558.23
2019-01-18T11:51:51.323Z,101561.45
2019-01-18T11:56:44.348Z,101567.81
2019-01-18T12:01:37.236Z,101565.16
2019-01-18T12:06:30.104Z,101558.63
2019-01-18T12:11:23.038Z,101575.41
2019-01-18T12:16:15.935Z,101570.38
2019-01-18T12:21:09.406Z,101563.25
2019-01-18T12:26:02.310Z,101572.65
2019-01-18T12:30:55.356Z,101566.67
2019-01-18T12:35:48.341Z,101560.10
2019-01-18T12:40:41.197Z,101548.02
2019-01-18T12:45:34.356Z,101547.37
2019-01-18T12:50:34.066Z,101547.26
2019-01-18T12:55:27.009Z,101545.58
2019-01-18T13:00:21.428Z,101541.69
2019-01-18T13:05:19.185Z,101539.55
2019-01-18T13:10:12.491Z,101544.19
2019-01-18T13:15:11.860Z,101521.17
2019-01-18T13:20:06.119Z,101519.45
2019-01-18T13:24:59.101Z,101530.77
2019-01-18T13:29:52.012Z,101530.56
2019-01-18T13:34:44.889Z,101535.44
2019-01-18T13:39:37.792Z,101538.15
2019-01-18T13:44:30.802Z,101537.94
2019-01-18T13:49:23.723Z,101540.25
2019-01-18T13:54:16.609Z,101548.16
2019-01-18T13:59:09.499Z,101538.48
2019-01-18T14:04:02.467Z,101552.11
2019-01-18T14:08:55.930Z,101544.94
2019-01-18T14:13:48.907Z,101549.84
2019-01-18T14:18:41.903Z,101544.88
2019-01-18T14:23:34.891Z,101543.67
2019-01-18T14:28:27.801Z,101540.56
2019-01-18T14:33:20.640Z,101533.14
2019-01-18T14:38:13.746Z,101531.41
2019-01-18T14:43:06.945Z,101530.23
2019-01-18T14:47:59.807Z,101534.27
2019-01-18T14:52:52.712Z,101528.41
2019-01-18T14:57:45.692Z,101535.61
2019-01-18T15:02:38.584Z,101538.47
2019-01-18T15:07:31.548Z,101537.27
2019-01-18T15:12:24.428Z,101536.17
2019-01-18T15:17:17.319Z,101532.86
2019-01-18T15:22:10.439Z,101534.64
2019-01-18T15:27:03.592Z,101532.09
2019-01-18T15:31:56.466Z,101531.62
2019-01-18T15:36:49.388Z,101531.85
2019-01-18T15:41:42.676Z,101526.52
2019-01-18T15:46:35.643Z,101528.41
2019-01-18T15:51:28.572Z,101535.42
2019-01-18T15:56:21.430Z,101535.19
2019-01-18T16:01:14.371Z,101530.25
2019-01-18T16:06:07.438Z,101527.12
2019-01-18T16:11:00.421Z,101522.14
2019-01-18T16:16:28.167Z,101524.13
2019-01-18T16:21:21.218Z,101529.00
2019-01-18T16:26:14.171Z,101532.45
2019-01-18T16:31:07.116Z,101537.37
2019-01-18T16:36:00.074Z,101538.00
2019-01-18T16:40:52.953Z,101541.19
2019-01-18T16:45:45.863Z,101542.42
2019-01-18T16:50:38.889Z,101542.19
2019-01-18T16:55:32.390Z,101541.49
2019-01-18T17:00:30.331Z,101544.23
2019-01-18T17:05:25.786Z,101545.97
2019-01-18T17:10:19.224Z,101546.70
2019-01-18T17:15:14.719Z,101541.55
2019-01-18T17:20:14.067Z,101547.59
2019-01-18T17:25:07.153Z,101548.47
2019-01-18T17:30:00.103Z,101538.75
2019-01-18T17:34:54.463Z,101550.08
2019-01-18T17:40:26.938Z,101548.59
2019-01-18T17:46:38.340Z,101544.92
2019-01-18T17:52:44.657Z,101550.22
2019-01-18T17:58:47.092Z,101552.73
2019-01-18T18:04:59.579Z,101549.68
2019-01-18T18:11:06.907Z,101545.40
2019-01-18T18:17:03.991Z,101541.73
2019-01-18T18:23:09.477Z,101535.30
2019-01-18T18:28:34.904Z,101536.08
2019-01-18T18:34:43.845Z,101537.14
2019-01-18T18:40:29.666Z,101539.58
2019-01-18T18:46:17.647Z,101528.90
2019-01-18T18:52:36.355Z,101539.05
2019-01-18T18:58:20.296Z,101534.67
2019-01-18T19:04:01.686Z,101537.12
2019-01-18T19:09:55.815Z,101529.15
2019-01-18T19:15:22.668Z,101528.61
2019-01-18T19:21:10.051Z,101525.84
2019-01-18T19:26:46.446Z,101528.31
2019-01-18T19:32:41.514Z,101524.56
2019-01-18T19:38:16.610Z,101517.65
2019-01-18T19:44:07.061Z,101513.27
2019-01-18T19:49:50.569Z,101520.97
2019-01-18T19:55:45.723Z,101510.20
2019-01-18T20:01:24.122Z,101512.38
2019-01-18T20:06:56.244Z,101514.52
2019-01-18T20:12:58.219Z,101508.47
2019-01-18T20:18:54.059Z,101507.95
2019-01-18T20:24:41.901Z,101511.89
2019-01-18T20:30:23.794Z,101511.24
2019-01-18T20:36:00.100Z,101509.28
2019-01-18T20:41:45.413Z,101512.94
2019-01-18T20:47:52.974Z,101506.87
2019-01-18T20:53:50.255Z,101510.52
2019-01-18T20:59:57.801Z,101515.01
2019-01-18T21:05:45.082Z,101508.87
2019-01-18T21:11:04.258Z,101505.67
2019-01-18T21:17:00.328Z,101505.68
2019-01-18T21:22:49.631Z,101505.87
2019-01-18T21:28:45.925Z,101504.81
2019-01-18T21:34:41.653Z,101504.91
2019-01-18T21:40:24.435Z,101507.27
2019-01-18T21:45:57.009Z,101505.45
2019-01-18T21:51:41.546Z,101504.75
2019-01-18T21:57:49.203Z,101507.20
2019-01-18T22:03:47.915Z,101503.84
2019-01-18T22:09:47.528Z,101508.41
2019-01-18T22:15:22.106Z,101508.65
2019-01-18T22:21:32.157Z,101510.39
2019-01-18T22:27:41.780Z,101511.56
2019-01-18T22:33:15.504Z,101516.68
2019-01-18T22:38:33.410Z,101520.97
2019-01-18T22:44:57.978Z,101522.07
2019-01-18T22:50:41.632Z,101517.20
2019-01-18T22:56:03.743Z,101519.14
2019-01-18T23:01:51.722Z,101521.17
2019-01-18T23:07:39.502Z,101518.14
2019-01-18T23:13:03.733Z,101518.87
2019-01-18T23:18:21.369Z,101514.28
2019-01-18T23:23:49.200Z,101513.28
2019-01-18T23:29:45.535Z,101511.28
2019-01-18T23:34:51.627Z,101510.64
2019-01-18T23:40:37.408Z,101511.25
2019-01-18T23:46:06.392Z,101501.31
2019-01-18T23:52:00.071Z,101501.87
2019-01-18T23:57:27.749Z,101495.83
